createdAt,value
2018-04-08T00:00:55.496Z,16.93
2018-04-08T00:02:48.363Z,16.96
2018-04-08T00:03:48.338Z,16.99
2018-04-08T00:05:41.205Z,16.90
2018-04-08T00:06:41.182Z,16.86
2018-04-08T00:08:34.089Z,16.83
2018-04-08T00:09:34.079Z,16.81
2018-04-08T00:11:26.923Z,16.86
2018-04-08T00:12:26.906Z,16.86
2018-04-08T00:14:19.775Z,16.83
2018-04-08T00:15:19.748Z,16.84
2018-04-08T00:17:12.682Z,16.86
2018-04-08T00:18:12.594Z,16.96
2018-04-08T00:20:05.474Z,16.86
2018-04-08T00:21:05.446Z,16.96
2018-04-08T00:22:58.321Z,17.01
2018-04-08T00:23:58.288Z,17.09
2018-04-08T00:25:51.165Z,17.14
2018-04-08T00:26:51.139Z,17.22
2018-04-08T00:28:43.992Z,16.96
2018-04-08T00:29:43.978Z,16.90
2018-04-08T00:31:36.849Z,16.71
2018-04-08T00:32:36.819Z,16.75
2018-04-08T00:34:29.678Z,16.72
2018-04-08T00:35:29.662Z,16.71
2018-04-08T00:37:22.533Z,16.74
2018-04-08T00:38:22.502Z,16.76
2018-04-08T00:40:15.362Z,16.83
2018-04-08T00:41:15.345Z,16.69
2018-04-08T00:43:08.229Z,16.53
2018-04-08T00:44:08.202Z,16.58
2018-04-08T00:46:01.062Z,16.64
2018-04-08T00:47:01.043Z,16.56
2018-04-08T00:48:53.914Z,16.41
2018-04-08T00:49:53.886Z,16.46
2018-04-08T00:51:46.743Z,16.50
2018-04-08T00:52:46.728Z,16.49
2018-04-08T00:54:39.601Z,16.47
2018-04-08T00:55:39.571Z,16.51
2018-04-08T00:57:32.428Z,16.50
2018-04-08T00:58:32.414Z,16.56
2018-04-08T01:00:25.289Z,16.49
2018-04-08T01:01:25.255Z,16.38
2018-04-08T01:03:18.108Z,16.32
2018-04-08T01:04:18.091Z,16.32
2018-04-08T01:06:10.962Z,16.33
2018-04-08T01:07:10.937Z,16.35
2018-04-08T01:09:03.792Z,16.29
2018-04-08T01:10:03.774Z,16.29
2018-04-08T01:11:56.644Z,16.35
2018-04-08T01:12:56.617Z,16.39
2018-04-08T01:14:49.473Z,16.39
2018-04-08T01:15:49.456Z,16.38
2018-04-08T01:17:42.327Z,16.39
2018-04-08T01:18:42.299Z,16.43
2018-04-08T01:20:35.154Z,16.29
2018-04-08T01:21:35.139Z,16.32
2018-04-08T01:23:28.011Z,16.31
2018-04-08T01:24:27.982Z,16.21
2018-04-08T01:26:20.839Z,16.36
2018-04-08T01:27:20.822Z,16.28
2018-04-08T01:29:13.718Z,16.09
2018-04-08T01:30:13.662Z,16.09
2018-04-08T01:32:06.526Z,16.08
2018-04-08T01:33:06.504Z,15.95
2018-04-08T01:34:59.371Z,15.86
2018-04-08T01:35:59.342Z,15.92
2018-04-08T01:37:52.206Z,15.97
2018-04-08T01:38:52.183Z,15.95
2018-04-08T01:40:45.057Z,16.04
2018-04-08T01:41:45.025Z,15.92
2018-04-08T01:43:37.884Z,16.04
2018-04-08T01:44:37.865Z,16.02
2018-04-08T01:46:30.733Z,15.97
2018-04-08T01:47:30.706Z,15.86
2018-04-08T01:49:23.570Z,15.57
2018-04-08T01:50:23.558Z,15.52
2018-04-08T01:52:16.417Z,15.39
2018-04-08T01:53:16.386Z,15.44
2018-04-08T01:55:09.241Z,15.31
2018-04-08T01:56:09.224Z,15.31
2018-04-08T01:58:02.094Z,15.31
2018-04-08T01:59:02.069Z,15.04
2018-04-08T02:00:54.957Z,14.92
2018-04-08T02:01:54.947Z,15.04
2018-04-08T02:03:47.813Z,15.15
2018-04-08T02:04:47.781Z,15.09
2018-04-08T02:06:40.641Z,15.24
2018-04-08T02:07:40.621Z,15.22
2018-04-08T02:09:33.485Z,15.49
2018-04-08T02:10:33.460Z,15.37
2018-04-08T02:12:26.317Z,15.21
2018-04-08T02:13:26.300Z,15.19
2018-04-08T02:15:19.245Z,15.18
2018-04-08T02:16:19.140Z,15.22
2018-04-08T02:18:12.002Z,15.19
2018-04-08T02:19:11.985Z,15.21
2018-04-08T02:21:04.857Z,15.15
2018-04-08T02:22:04.828Z,15.11
2018-04-08T02:23:57.730Z,15.14
2018-04-08T02:24:57.708Z,15.09
2018-04-08T02:26:50.576Z,14.97
2018-04-08T02:27:50.546Z,15.00
2018-04-08T02:29:43.404Z,14.77
2018-04-08T02:30:43.386Z,14.86
2018-04-08T02:32:36.253Z,14.78
2018-04-08T02:33:36.230Z,14.78
2018-04-08T02:35:29.083Z,14.53
2018-04-08T02:36:29.061Z,14.37
2018-04-08T02:38:22.005Z,14.33
2018-04-08T02:39:21.903Z,14.33
2018-04-08T02:41:14.759Z,14.36
2018-04-08T02:42:14.743Z,14.33
2018-04-08T02:44:07.608Z,14.35
2018-04-08T02:45:07.582Z,14.51
2018-04-08T02:47:00.445Z,14.72
2018-04-08T02:48:00.423Z,14.79
2018-04-08T02:49:53.292Z,14.62
2018-04-08T02:50:53.269Z,14.59
2018-04-08T02:52:46.126Z,14.37
2018-04-08T02:53:46.104Z,14.47
2018-04-08T02:55:38.970Z,14.36
2018-04-08T02:56:38.945Z,14.40
2018-04-08T02:58:31.803Z,14.45
2018-04-08T02:59:31.801Z,14.35
2018-04-08T03:01:24.652Z,14.18
2018-04-08T03:02:24.624Z,14.23
2018-04-08T03:04:17.481Z,14.12
2018-04-08T03:05:17.466Z,14.12
2018-04-08T03:07:10.330Z,13.97
2018-04-08T03:08:10.301Z,13.83
2018-04-08T03:10:03.154Z,13.95
2018-04-08T03:11:03.137Z,13.95
2018-04-08T03:12:56.003Z,13.95
2018-04-08T03:13:55.975Z,13.79
2018-04-08T03:15:48.831Z,13.67
2018-04-08T03:16:48.814Z,13.59
2018-04-08T03:18:41.680Z,13.68
2018-04-08T03:19:41.650Z,13.67
2018-04-08T03:21:34.506Z,13.44
2018-04-08T03:22:34.487Z,13.47
2018-04-08T03:24:27.352Z,13.44
2018-04-08T03:25:27.324Z,13.31
2018-04-08T03:27:20.182Z,13.31
2018-04-08T03:28:20.159Z,13.25
2018-04-08T03:30:13.026Z,13.23
2018-04-08T03:31:12.997Z,13.19
2018-04-08T03:33:05.850Z,13.08
2018-04-08T03:34:05.833Z,12.98
2018-04-08T03:35:58.700Z,12.94
2018-04-08T03:36:58.669Z,12.87
2018-04-08T03:38:51.526Z,12.90
2018-04-08T03:39:51.536Z,12.76
2018-04-08T03:41:44.375Z,13.00
2018-04-08T03:42:44.346Z,13.01
2018-04-08T03:44:37.694Z,12.93
2018-04-08T03:45:37.676Z,12.79
2018-04-08T03:47:30.539Z,12.80
2018-04-08T03:48:30.563Z,12.73
2018-04-08T03:50:23.390Z,12.72
2018-04-08T03:51:23.355Z,12.68
2018-04-08T03:53:16.222Z,12.76
2018-04-08T03:54:16.190Z,12.83
2018-04-08T03:56:09.067Z,12.83
2018-04-08T03:57:09.046Z,13.00
2018-04-08T03:59:01.911Z,13.15
2018-04-08T04:00:01.882Z,13.13
2018-04-08T04:01:55.232Z,12.93
2018-04-08T04:02:55.211Z,12.85
2018-04-08T04:04:48.072Z,13.01
2018-04-08T04:05:48.047Z,12.98
2018-04-08T04:07:40.902Z,12.83
2018-04-08T04:08:40.885Z,12.94
2018-04-08T04:10:34.238Z,13.16
2018-04-08T04:11:34.212Z,13.15
2018-04-08T04:13:27.069Z,13.38
2018-04-08T04:14:27.048Z,13.42
2018-04-08T04:16:19.909Z,13.50
2018-04-08T04:17:19.887Z,13.57
2018-04-08T04:19:12.741Z,13.71
2018-04-08T04:20:12.722Z,13.77
2018-04-08T04:22:05.614Z,13.93
2018-04-08T04:23:05.563Z,13.72
2018-04-08T04:24:58.415Z,13.72
2018-04-08T04:25:58.393Z,13.70
2018-04-08T04:27:51.259Z,13.70
2018-04-08T04:28:51.231Z,13.72
2018-04-08T04:30:44.083Z,13.68
2018-04-08T04:31:44.065Z,13.77
2018-04-08T04:33:36.934Z,13.90
2018-04-08T04:34:36.904Z,13.89
2018-04-08T04:36:29.758Z,13.77
2018-04-08T04:37:29.739Z,13.81
2018-04-08T04:39:22.600Z,13.62
2018-04-08T04:40:22.597Z,13.33
2018-04-08T04:42:15.428Z,13.00
2018-04-08T04:43:15.409Z,13.00
2018-04-08T04:45:08.270Z,12.73
2018-04-08T04:46:08.243Z,12.67
2018-04-08T04:48:01.098Z,12.64
2018-04-08T04:49:01.081Z,12.36
2018-04-08T04:50:53.945Z,12.43
2018-04-08T04:51:53.916Z,12.35
2018-04-08T04:53:46.773Z,12.28
2018-04-08T04:54:46.757Z,12.24
2018-04-08T04:56:39.623Z,12.36
2018-04-08T04:57:39.591Z,12.42
2018-04-08T04:59:32.442Z,12.22
2018-04-08T05:00:32.423Z,12.22
2018-04-08T05:02:25.287Z,12.09
2018-04-08T05:03:25.261Z,12.09
2018-04-08T05:05:18.114Z,12.03
2018-04-08T05:06:18.096Z,12.25
2018-04-08T05:08:10.963Z,12.06
2018-04-08T05:09:10.935Z,12.15
2018-04-08T05:11:04.281Z,12.17
2018-04-08T05:12:04.263Z,12.18
2018-04-08T05:13:57.154Z,11.97
2018-04-08T05:14:57.105Z,12.02
2018-04-08T05:16:49.951Z,12.04
2018-04-08T05:17:49.933Z,12.03
2018-04-08T05:19:42.792Z,12.12
2018-04-08T05:20:42.765Z,12.06
2018-04-08T05:22:35.623Z,11.91
2018-04-08T05:23:35.602Z,12.09
2018-04-08T05:25:28.463Z,11.94
2018-04-08T05:26:28.435Z,12.02
2018-04-08T05:28:21.336Z,12.02
2018-04-08T05:29:21.269Z,11.94
2018-04-08T05:31:14.623Z,11.77
2018-04-08T05:32:14.596Z,11.86
2018-04-08T05:34:07.461Z,11.84
2018-04-08T05:35:07.434Z,11.95
2018-04-08T05:37:00.783Z,11.91
2018-04-08T05:38:00.762Z,11.99
2018-04-08T05:39:53.627Z,12.02
2018-04-08T05:40:53.597Z,11.97
2018-04-08T05:42:46.450Z,12.00
2018-04-08T05:43:46.430Z,12.00
2018-04-08T05:45:39.374Z,12.07
2018-04-08T05:46:39.274Z,11.97
2018-04-08T05:48:32.117Z,12.21
2018-04-08T05:49:32.098Z,12.15
2018-04-08T05:51:24.959Z,12.22
2018-04-08T05:52:24.935Z,12.31
2018-04-08T05:54:17.785Z,12.37
2018-04-08T05:55:17.768Z,12.46
2018-04-08T05:57:10.635Z,12.58
2018-04-08T05:58:10.604Z,12.73
2018-04-08T06:00:03.457Z,12.94
2018-04-08T06:01:03.437Z,13.04
2018-04-08T06:02:56.302Z,13.16
2018-04-08T06:03:56.275Z,13.16
2018-04-08T06:05:49.129Z,13.25
2018-04-08T06:06:49.107Z,13.05
2018-04-08T06:08:41.968Z,13.33
2018-04-08T06:09:41.942Z,13.31
2018-04-08T06:11:34.793Z,12.94
2018-04-08T06:12:34.775Z,12.91
2018-04-08T06:14:27.641Z,12.93
2018-04-08T06:15:27.608Z,12.83
2018-04-08T06:17:20.461Z,12.93
2018-04-08T06:18:20.444Z,12.91
2018-04-08T06:20:13.309Z,12.72
2018-04-08T06:21:13.288Z,12.82
2018-04-08T06:23:06.131Z,12.70
2018-04-08T06:24:06.113Z,12.76
2018-04-08T06:25:58.975Z,12.85
2018-04-08T06:26:58.951Z,12.85
2018-04-08T06:28:51.801Z,12.90
2018-04-08T06:29:51.785Z,13.03
2018-04-08T06:31:44.647Z,13.00
2018-04-08T06:32:44.617Z,13.12
2018-04-08T06:34:37.468Z,13.08
2018-04-08T06:35:37.450Z,13.15
2018-04-08T06:37:30.318Z,13.04
2018-04-08T06:38:30.386Z,13.11
2018-04-08T06:40:23.142Z,13.19
2018-04-08T06:41:23.123Z,13.03
2018-04-08T06:43:15.982Z,13.01
2018-04-08T06:44:15.958Z,13.04
2018-04-08T06:46:08.887Z,13.15
2018-04-08T06:47:08.791Z,13.16
2018-04-08T06:49:01.664Z,13.18
2018-04-08T06:50:01.626Z,13.27
2018-04-08T06:51:55.002Z,13.27
2018-04-08T06:52:54.981Z,13.35
2018-04-08T06:54:47.845Z,13.35
2018-04-08T06:55:47.817Z,13.38
2018-04-08T06:57:40.671Z,13.33
2018-04-08T06:58:40.652Z,13.46
2018-04-08T07:00:33.516Z,13.52
2018-04-08T07:01:33.490Z,13.49
2018-04-08T07:03:26.346Z,13.62
2018-04-08T07:04:26.325Z,13.65
2018-04-08T07:06:19.194Z,13.79
2018-04-08T07:07:19.160Z,13.71
2018-04-08T07:09:12.016Z,13.95
2018-04-08T07:10:11.997Z,13.93
2018-04-08T07:12:04.912Z,14.12
2018-04-08T07:13:04.833Z,14.04
2018-04-08T07:14:57.687Z,14.11
2018-04-08T07:15:57.667Z,14.08
2018-04-08T07:17:50.530Z,14.14
2018-04-08T07:18:50.503Z,14.10
2018-04-08T07:20:43.853Z,14.35
2018-04-08T07:21:43.838Z,14.35
2018-04-08T07:23:36.704Z,14.37
2018-04-08T07:24:36.676Z,14.36
2018-04-08T07:26:29.523Z,14.47
2018-04-08T07:27:29.504Z,14.59
2018-04-08T07:29:22.371Z,14.58
2018-04-08T07:30:22.338Z,14.58
2018-04-08T07:32:15.195Z,14.72
2018-04-08T07:33:15.177Z,14.73
2018-04-08T07:35:08.041Z,14.66
2018-04-08T07:36:08.016Z,14.69
2018-04-08T07:38:00.905Z,14.96
2018-04-08T07:39:00.853Z,15.02
2018-04-08T07:40:53.724Z,15.07
2018-04-08T07:41:53.697Z,15.02
2018-04-08T07:43:46.554Z,15.28
2018-04-08T07:44:46.534Z,15.24
2018-04-08T07:46:39.398Z,15.42
2018-04-08T07:47:39.371Z,15.43
2018-04-08T07:49:32.720Z,15.52
2018-04-08T07:50:32.710Z,15.65
2018-04-08T07:52:25.567Z,15.72
2018-04-08T07:53:25.543Z,15.73
2018-04-08T07:55:18.403Z,15.75
2018-04-08T07:56:18.379Z,15.72
2018-04-08T07:58:11.237Z,15.73
2018-04-08T07:59:11.220Z,15.75
2018-04-08T08:01:04.572Z,15.82
2018-04-08T08:02:04.545Z,15.94
2018-04-08T08:03:57.404Z,16.02
2018-04-08T08:04:57.386Z,15.97
2018-04-08T08:06:50.252Z,16.08
2018-04-08T08:07:50.228Z,16.16
2018-04-08T08:09:43.085Z,16.28
2018-04-08T08:10:43.071Z,16.33
2018-04-08T08:12:35.935Z,16.46
2018-04-08T08:13:35.905Z,16.53
2018-04-08T08:15:28.762Z,16.57
2018-04-08T08:16:28.745Z,16.56
2018-04-08T08:18:21.638Z,16.72
2018-04-08T08:19:21.583Z,16.75
2018-04-08T08:21:14.439Z,16.75
2018-04-08T08:22:14.423Z,16.90
2018-04-08T08:24:07.295Z,16.87
2018-04-08T08:25:07.265Z,16.84
2018-04-08T08:27:00.122Z,17.02
2018-04-08T08:28:00.105Z,17.02
2018-04-08T08:29:52.970Z,17.01
2018-04-08T08:30:52.943Z,17.08
2018-04-08T08:32:46.295Z,17.26
2018-04-08T08:33:46.278Z,17.22
2018-04-08T08:35:39.642Z,17.34
2018-04-08T08:36:39.614Z,17.27
2018-04-08T08:38:32.479Z,17.45
2018-04-08T08:39:32.452Z,17.44
2018-04-08T08:41:25.321Z,17.59
2018-04-08T08:42:25.294Z,17.56
2018-04-08T08:44:18.156Z,17.67
2018-04-08T08:45:18.139Z,17.68
2018-04-08T08:47:11.008Z,17.74
2018-04-08T08:48:10.986Z,17.78
2018-04-08T08:50:03.839Z,17.92
2018-04-08T08:51:03.862Z,17.95
2018-04-08T08:52:56.695Z,18.00
2018-04-08T08:53:56.664Z,18.03
2018-04-08T08:55:49.525Z,18.11
2018-04-08T08:56:49.507Z,18.08
2018-04-08T08:58:42.381Z,18.07
2018-04-08T08:59:42.350Z,18.20
2018-04-08T09:01:35.704Z,18.29
2018-04-08T09:02:35.685Z,18.33
2018-04-08T09:04:28.552Z,18.35
2018-04-08T09:05:28.530Z,18.34
2018-04-08T09:07:21.388Z,18.45
2018-04-08T09:08:21.370Z,18.53
2018-04-08T09:10:14.240Z,18.65
2018-04-08T09:11:14.216Z,18.75
2018-04-08T09:13:07.106Z,18.70
2018-04-08T09:14:07.058Z,18.66
2018-04-08T09:15:59.925Z,18.66
2018-04-08T09:16:59.900Z,18.78
2018-04-08T09:18:52.760Z,18.92
2018-04-08T09:19:52.745Z,18.92
2018-04-08T09:21:45.613Z,18.96
2018-04-08T09:22:45.589Z,19.02
2018-04-08T09:24:38.462Z,19.07
2018-04-08T09:25:38.438Z,19.18
2018-04-08T09:27:31.296Z,19.21
2018-04-08T09:28:31.303Z,19.29
2018-04-08T09:30:24.143Z,19.31
2018-04-08T09:31:24.119Z,19.33
2018-04-08T09:33:16.984Z,19.44
2018-04-08T09:34:16.969Z,19.49
2018-04-08T09:36:09.843Z,19.47
2018-04-08T09:37:09.825Z,19.48
2018-04-08T09:39:02.676Z,19.49
2018-04-08T09:40:02.663Z,19.52
2018-04-08T09:41:55.536Z,19.67
2018-04-08T09:42:55.511Z,19.76
2018-04-08T09:44:48.369Z,19.71
2018-04-08T09:45:48.356Z,19.76
2018-04-08T09:47:41.222Z,19.91
2018-04-08T09:48:41.206Z,19.95
2018-04-08T09:50:34.066Z,20.06
2018-04-08T09:51:34.048Z,20.10
2018-04-08T09:53:26.927Z,20.11
2018-04-08T09:54:26.900Z,20.16
2018-04-08T09:56:19.760Z,20.14
2018-04-08T09:57:19.748Z,20.31
2018-04-08T09:59:12.625Z,20.37
2018-04-08T10:00:12.596Z,20.41
2018-04-08T10:02:05.462Z,20.47
2018-04-08T10:03:05.438Z,20.51
2018-04-08T10:04:58.318Z,20.63
2018-04-08T10:05:58.296Z,20.69
2018-04-08T10:07:51.154Z,20.69
2018-04-08T10:08:51.138Z,20.72
2018-04-08T10:10:44.021Z,20.74
2018-04-08T10:11:43.990Z,20.84
2018-04-08T10:13:36.858Z,20.78
2018-04-08T10:14:36.841Z,20.99
2018-04-08T10:16:29.722Z,21.03
2018-04-08T10:17:29.691Z,21.03
2018-04-08T10:19:22.581Z,21.18
2018-04-08T10:20:22.545Z,21.21
2018-04-08T10:22:15.412Z,21.29
2018-04-08T10:23:15.390Z,21.42
2018-04-08T10:25:08.338Z,21.50
2018-04-08T10:26:08.248Z,21.54
2018-04-08T10:28:01.118Z,21.50
2018-04-08T10:29:01.115Z,21.61
2018-04-08T10:30:53.960Z,21.64
2018-04-08T10:31:53.945Z,21.76
2018-04-08T10:33:57.890Z,21.73
2018-04-08T10:34:57.870Z,21.95
2018-04-08T10:36:50.737Z,22.02
2018-04-08T10:37:50.718Z,22.08
2018-04-08T10:39:43.592Z,22.14
2018-04-08T10:40:43.571Z,22.18
2018-04-08T10:42:36.439Z,22.38
2018-04-08T10:43:36.417Z,22.29
2018-04-08T10:45:29.288Z,22.36
2018-04-08T10:46:29.265Z,22.41
2018-04-08T10:48:22.135Z,22.48
2018-04-08T10:49:22.121Z,22.54
2018-04-08T10:51:15.068Z,22.53
2018-04-08T10:52:14.986Z,22.60
2018-04-08T10:54:07.843Z,22.75
2018-04-08T10:55:07.829Z,22.75
2018-04-08T10:57:00.707Z,22.84
2018-04-08T10:58:00.684Z,22.81
2018-04-08T10:59:53.551Z,22.88
2018-04-08T11:00:53.537Z,23.00
2018-04-08T11:02:46.408Z,23.05
2018-04-08T11:03:46.387Z,23.09
2018-04-08T11:05:39.327Z,23.13
2018-04-08T11:06:39.242Z,23.17
2018-04-08T11:08:32.114Z,23.28
2018-04-08T11:09:32.094Z,23.34
2018-04-08T11:11:24.958Z,23.40
2018-04-08T11:12:24.944Z,23.39
2018-04-08T11:14:17.819Z,23.54
2018-04-08T11:15:17.797Z,23.61
2018-04-08T11:17:10.678Z,23.59
2018-04-08T11:18:10.653Z,23.65
2018-04-08T11:20:03.516Z,23.63
2018-04-08T11:21:03.506Z,23.61
2018-04-08T11:22:56.381Z,23.69
2018-04-08T11:23:56.360Z,23.76
2018-04-08T11:25:49.225Z,23.91
2018-04-08T11:26:49.209Z,23.84
2018-04-08T11:28:42.086Z,23.99
2018-04-08T11:29:42.074Z,24.08
2018-04-08T11:31:34.963Z,23.98
2018-04-08T11:32:34.913Z,23.95
2018-04-08T11:34:27.791Z,24.06
2018-04-08T11:35:27.765Z,24.08
2018-04-08T11:37:20.636Z,24.28
2018-04-08T11:38:20.626Z,24.40
2018-04-08T11:40:13.495Z,24.51
2018-04-08T11:41:13.504Z,24.55
2018-04-08T11:43:06.351Z,24.60
2018-04-08T11:44:06.334Z,24.66
2018-04-08T11:45:59.208Z,24.91
2018-04-08T11:46:59.188Z,25.04
2018-04-08T11:48:52.054Z,25.31
2018-04-08T11:49:52.044Z,25.48
2018-04-08T11:51:44.919Z,25.88
2018-04-08T11:52:44.900Z,26.07
2018-04-08T11:54:37.780Z,26.34
2018-04-08T11:55:37.769Z,26.66
2018-04-08T11:57:30.642Z,26.89
2018-04-08T11:58:30.623Z,27.37
2018-04-08T12:00:23.581Z,27.73
2018-04-08T12:01:23.483Z,27.85
2018-04-08T12:03:16.359Z,28.14
2018-04-08T12:04:16.343Z,28.19
2018-04-08T12:06:09.231Z,28.14
2018-04-08T12:07:09.213Z,28.33
2018-04-08T12:09:02.078Z,28.52
2018-04-08T12:10:02.069Z,28.91
2018-04-08T12:11:54.965Z,29.36
2018-04-08T12:12:54.946Z,29.61
2018-04-08T12:14:47.817Z,29.87
2018-04-08T12:15:47.807Z,30.00
2018-04-08T12:17:40.728Z,30.12
2018-04-08T12:18:40.715Z,29.82
2018-04-08T12:20:33.603Z,30.15
2018-04-08T12:21:33.586Z,30.10
2018-04-08T12:23:26.460Z,30.35
2018-04-08T12:24:26.447Z,30.59
2018-04-08T12:26:19.320Z,30.72
2018-04-08T12:27:19.315Z,30.55
2018-04-08T12:29:12.201Z,30.68
2018-04-08T12:30:12.183Z,30.91
2018-04-08T12:32:05.078Z,31.71
2018-04-08T12:33:05.063Z,31.64
2018-04-08T12:34:57.970Z,32.58
2018-04-08T12:35:57.929Z,32.77
2018-04-08T12:37:51.319Z,33.00
